Terminal Aerodrome Forecast
Issued by NWS Bismarck, ND

Home | Current Version | Previous Version | Graphics & Text | Print | Product List | Glossary On
Versions: 1 2 3 4 5 6 7 8 9 10 11 12 13 14 15 16 17 18 19 20 21 22 23
411
FTUS43 KBIS 181700 AAD
TAFISN
TAF AMD
KISN 181700Z 1817/1912 VRB04KT P6SM OVC004
     FM181800 33005KT P6SM BKN009
     FM182100 36007KT P6SM BKN012
     FM190400 VRB04KT P6SM BKN015=

USA.gov is the U.S. government's official web portal to all federal, state and local government web resources and services.